sensor_id;sensor_type;location;lat;lon;timestamp;P1;durP1;ratioP1;P2;durP2;ratioP2
76447;SDS011;65284;51.040;13.722;2023-05-03T00:00:02;11.10;;;4.10;;
76447;SDS011;65284;51.040;13.722;2023-05-03T00:02:33;11.77;;;3.90;;
76447;SDS011;65284;51.040;13.722;2023-05-03T00:05:05;10.13;;;4.10;;
76447;SDS011;65284;51.040;13.722;2023-05-03T00:07:37;10.68;;;4.25;;
76447;SDS011;65284;51.040;13.722;2023-05-03T00:10:05;10.50;;;4.22;;
76447;SDS011;65284;51.040;13.722;2023-05-03T00:12:33;10.50;;;4.30;;
76447;SDS011;65284;51.040;13.722;2023-05-03T00:15:00;9.77;;;4.55;;
76447;SDS011;65284;51.040;13.722;2023-05-03T00:17:26;11.40;;;4.88;;
76447;SDS011;65284;51.040;13.722;2023-05-03T00:19:52;11.88;;;4.65;;
76447;SDS011;65284;51.040;13.722;2023-05-03T00:22:21;10.32;;;4.75;;
76447;SDS011;65284;51.040;13.722;2023-05-03T00:24:49;13.25;;;4.78;;
76447;SDS011;65284;51.040;13.722;2023-05-03T00:27:16;13.25;;;4.93;;
76447;SDS011;65284;51.040;13.722;2023-05-03T00:29:44;14.75;;;4.95;;
76447;SDS011;65284;51.040;13.722;2023-05-03T00:32:10;12.20;;;5.20;;
76447;SDS011;65284;51.040;13.722;2023-05-03T00:34:37;12.98;;;5.40;;
76447;SDS011;65284;51.040;13.722;2023-05-03T00:37:04;10.30;;;4.68;;
76447;SDS011;65284;51.040;13.722;2023-05-03T00:39:31;13.93;;;5.22;;
76447;SDS011;65284;51.040;13.722;2023-05-03T00:41:57;9.98;;;4.63;;
76447;SDS011;65284;51.040;13.722;2023-05-03T00:44:24;12.38;;;5.10;;
76447;SDS011;65284;51.040;13.722;2023-05-03T00:46:51;10.98;;;4.63;;
76447;SDS011;65284;51.040;13.722;2023-05-03T00:49:18;12.07;;;5.07;;
76447;SDS011;65284;51.040;13.722;2023-05-03T00:51:44;13.60;;;5.07;;
76447;SDS011;65284;51.040;13.722;2023-05-03T00:54:11;11.07;;;4.63;;
76447;SDS011;65284;51.040;13.722;2023-05-03T00:56:38;11.68;;;4.68;;
76447;SDS011;65284;51.040;13.722;2023-05-03T00:59:16;9.82;;;4.78;;
76447;SDS011;65284;51.040;13.722;2023-05-03T01:01:45;14.43;;;4.80;;
76447;SDS011;65284;51.040;13.722;2023-05-03T01:04:14;10.48;;;4.53;;
76447;SDS011;65284;51.040;13.722;2023-05-03T01:06:51;11.05;;;5.10;;
76447;SDS011;65284;51.040;13.722;2023-05-03T01:09:36;11.75;;;5.05;;
76447;SDS011;65284;51.040;13.722;2023-05-03T01:17:06;10.90;;;4.50;;
76447;SDS011;65284;51.040;13.722;2023-05-03T01:19:40;10.02;;;4.47;;
76447;SDS011;65284;51.040;13.722;2023-05-03T01:25:08;8.13;;;4.22;;
76447;SDS011;65284;51.040;13.722;2023-05-03T01:27:38;10.35;;;4.60;;
76447;SDS011;65284;51.040;13.722;2023-05-03T01:30:07;10.93;;;4.68;;
76447;SDS011;65284;51.040;13.722;2023-05-03T01:32:53;10.68;;;4.38;;
76447;SDS011;65284;51.040;13.722;2023-05-03T01:35:23;9.43;;;4.70;;
76447;SDS011;65284;51.040;13.722;2023-05-03T01:37:55;10.57;;;4.60;;
76447;SDS011;65284;51.040;13.722;2023-05-03T01:40:22;9.38;;;4.20;;
76447;SDS011;65284;51.040;13.722;2023-05-03T01:42:52;7.85;;;4.20;;
76447;SDS011;65284;51.040;13.722;2023-05-03T01:45:20;9.60;;;4.18;;
76447;SDS011;65284;51.040;13.722;2023-05-03T01:47:47;9.35;;;4.03;;
76447;SDS011;65284;51.040;13.722;2023-05-03T01:50:13;9.27;;;3.90;;
76447;SDS011;65284;51.040;13.722;2023-05-03T01:52:40;9.15;;;4.03;;
76447;SDS011;65284;51.040;13.722;2023-05-03T01:55:06;9.60;;;3.50;;
76447;SDS011;65284;51.040;13.722;2023-05-03T01:57:33;8.65;;;3.40;;
76447;SDS011;65284;51.040;13.722;2023-05-03T01:59:59;7.85;;;3.20;;
76447;SDS011;65284;51.040;13.722;2023-05-03T02:02:26;10.85;;;3.13;;
76447;SDS011;65284;51.040;13.722;2023-05-03T02:04:53;7.57;;;3.28;;
76447;SDS011;65284;51.040;13.722;2023-05-03T02:07:20;6.63;;;2.72;;
76447;SDS011;65284;51.040;13.722;2023-05-03T02:09:46;8.10;;;2.97;;
76447;SDS011;65284;51.040;13.722;2023-05-03T02:12:13;6.05;;;2.90;;
76447;SDS011;65284;51.040;13.722;2023-05-03T02:14:39;5.75;;;2.90;;
76447;SDS011;65284;51.040;13.722;2023-05-03T02:17:06;8.32;;;3.00;;
76447;SDS011;65284;51.040;13.722;2023-05-03T02:19:33;6.95;;;3.20;;
76447;SDS011;65284;51.040;13.722;2023-05-03T02:22:00;8.80;;;3.45;;
76447;SDS011;65284;51.040;13.722;2023-05-03T02:24:27;11.38;;;4.13;;
76447;SDS011;65284;51.040;13.722;2023-05-03T02:26:54;8.35;;;3.50;;
76447;SDS011;65284;51.040;13.722;2023-05-03T02:29:21;8.82;;;3.72;;
76447;SDS011;65284;51.040;13.722;2023-05-03T02:31:47;8.05;;;3.53;;
76447;SDS011;65284;51.040;13.722;2023-05-03T02:34:13;7.95;;;3.63;;
76447;SDS011;65284;51.040;13.722;2023-05-03T02:36:40;7.15;;;3.33;;
76447;SDS011;65284;51.040;13.722;2023-05-03T02:39:06;7.15;;;3.40;;
76447;SDS011;65284;51.040;13.722;2023-05-03T02:41:33;10.63;;;3.55;;
76447;SDS011;65284;51.040;13.722;2023-05-03T02:44:00;9.55;;;3.70;;
76447;SDS011;65284;51.040;13.722;2023-05-03T02:46:26;10.82;;;3.60;;
76447;SDS011;65284;51.040;13.722;2023-05-03T02:48:53;9.30;;;3.85;;
76447;SDS011;65284;51.040;13.722;2023-05-03T02:51:19;9.82;;;3.70;;
76447;SDS011;65284;51.040;13.722;2023-05-03T02:53:46;9.55;;;3.85;;
76447;SDS011;65284;51.040;13.722;2023-05-03T02:56:12;8.23;;;3.75;;
76447;SDS011;65284;51.040;13.722;2023-05-03T02:58:38;8.77;;;4.07;;
76447;SDS011;65284;51.040;13.722;2023-05-03T03:01:05;8.15;;;3.75;;
76447;SDS011;65284;51.040;13.722;2023-05-03T03:03:32;10.32;;;3.90;;
76447;SDS011;65284;51.040;13.722;2023-05-03T03:05:58;9.88;;;3.50;;
76447;SDS011;65284;51.040;13.722;2023-05-03T03:08:25;8.98;;;3.70;;
76447;SDS011;65284;51.040;13.722;2023-05-03T03:10:51;8.63;;;3.63;;
76447;SDS011;65284;51.040;13.722;2023-05-03T03:13:18;7.72;;;3.67;;
76447;SDS011;65284;51.040;13.722;2023-05-03T03:15:44;8.52;;;4.00;;
76447;SDS011;65284;51.040;13.722;2023-05-03T03:18:11;8.55;;;3.83;;
76447;SDS011;65284;51.040;13.722;2023-05-03T03:20:37;10.68;;;4.15;;
76447;SDS011;65284;51.040;13.722;2023-05-03T03:23:03;6.45;;;3.85;;
76447;SDS011;65284;51.040;13.722;2023-05-03T03:25:30;9.20;;;3.75;;
76447;SDS011;65284;51.040;13.722;2023-05-03T03:27:56;8.95;;;4.18;;
76447;SDS011;65284;51.040;13.722;2023-05-03T03:30:23;9.63;;;3.83;;
76447;SDS011;65284;51.040;13.722;2023-05-03T03:32:49;11.05;;;4.00;;
76447;SDS011;65284;51.040;13.722;2023-05-03T03:35:15;10.13;;;3.75;;
76447;SDS011;65284;51.040;13.722;2023-05-03T03:37:42;12.85;;;4.30;;
76447;SDS011;65284;51.040;13.722;2023-05-03T03:40:09;7.95;;;3.75;;
76447;SDS011;65284;51.040;13.722;2023-05-03T03:42:36;9.43;;;3.78;;
76447;SDS011;65284;51.040;13.722;2023-05-03T03:45:03;8.40;;;3.58;;
76447;SDS011;65284;51.040;13.722;2023-05-03T03:47:29;9.57;;;3.92;;
76447;SDS011;65284;51.040;13.722;2023-05-03T03:49:56;8.18;;;4.10;;
76447;SDS011;65284;51.040;13.722;2023-05-03T03:52:22;9.85;;;4.20;;
76447;SDS011;65284;51.040;13.722;2023-05-03T03:54:49;7.57;;;3.33;;
76447;SDS011;65284;51.040;13.722;2023-05-03T03:57:15;9.80;;;3.97;;
76447;SDS011;65284;51.040;13.722;2023-05-03T03:59:41;11.15;;;3.72;;
76447;SDS011;65284;51.040;13.722;2023-05-03T04:02:08;10.45;;;3.80;;
76447;SDS011;65284;51.040;13.722;2023-05-03T04:04:35;8.45;;;3.80;;
76447;SDS011;65284;51.040;13.722;2023-05-03T04:07:01;8.98;;;3.83;;
76447;SDS011;65284;51.040;13.722;2023-05-03T04:09:29;9.70;;;3.42;;
76447;SDS011;65284;51.040;13.722;2023-05-03T04:11:55;8.45;;;3.30;;
76447;SDS011;65284;51.040;13.722;2023-05-03T04:14:22;7.95;;;3.22;;
76447;SDS011;65284;51.040;13.722;2023-05-03T04:16:48;7.63;;;2.92;;
76447;SDS011;65284;51.040;13.722;2023-05-03T04:19:15;7.18;;;3.10;;
76447;SDS011;65284;51.040;13.722;2023-05-03T04:21:43;9.38;;;3.58;;
76447;SDS011;65284;51.040;13.722;2023-05-03T04:24:13;6.68;;;3.35;;
76447;SDS011;65284;51.040;13.722;2023-05-03T04:26:40;8.30;;;3.08;;
76447;SDS011;65284;51.040;13.722;2023-05-03T04:29:07;9.95;;;3.30;;
76447;SDS011;65284;51.040;13.722;2023-05-03T04:31:35;7.90;;;3.25;;
76447;SDS011;65284;51.040;13.722;2023-05-03T04:34:01;7.50;;;2.72;;
76447;SDS011;65284;51.040;13.722;2023-05-03T04:36:28;11.05;;;3.28;;
76447;SDS011;65284;51.040;13.722;2023-05-03T04:38:55;8.25;;;2.90;;
76447;SDS011;65284;51.040;13.722;2023-05-03T04:41:21;9.10;;;2.75;;
76447;SDS011;65284;51.040;13.722;2023-05-03T04:43:49;7.47;;;3.10;;
76447;SDS011;65284;51.040;13.722;2023-05-03T04:46:16;9.10;;;2.80;;
76447;SDS011;65284;51.040;13.722;2023-05-03T04:48:44;8.80;;;2.80;;
76447;SDS011;65284;51.040;13.722;2023-05-03T04:51:11;5.57;;;2.60;;
76447;SDS011;65284;51.040;13.722;2023-05-03T04:53:37;10.52;;;2.70;;
76447;SDS011;65284;51.040;13.722;2023-05-03T04:56:03;7.95;;;2.50;;
76447;SDS011;65284;51.040;13.722;2023-05-03T04:58:30;6.45;;;2.50;;
76447;SDS011;65284;51.040;13.722;2023-05-03T05:00:57;6.97;;;2.83;;
76447;SDS011;65284;51.040;13.722;2023-05-03T05:03:24;6.85;;;2.70;;
76447;SDS011;65284;51.040;13.722;2023-05-03T05:05:51;6.07;;;2.58;;
76447;SDS011;65284;51.040;13.722;2023-05-03T05:08:17;5.10;;;2.40;;
76447;SDS011;65284;51.040;13.722;2023-05-03T05:10:45;11.85;;;2.78;;
76447;SDS011;65284;51.040;13.722;2023-05-03T05:13:13;5.90;;;3.00;;
76447;SDS011;65284;51.040;13.722;2023-05-03T05:15:39;10.55;;;2.58;;
76447;SDS011;65284;51.040;13.722;2023-05-03T05:18:06;6.22;;;2.30;;
76447;SDS011;65284;51.040;13.722;2023-05-03T05:20:32;7.38;;;2.75;;
76447;SDS011;65284;51.040;13.722;2023-05-03T05:22:59;7.75;;;2.70;;
76447;SDS011;65284;51.040;13.722;2023-05-03T05:25:25;10.88;;;2.85;;
76447;SDS011;65284;51.040;13.722;2023-05-03T05:27:52;7.97;;;2.90;;
76447;SDS011;65284;51.040;13.722;2023-05-03T05:30:18;7.32;;;2.95;;
76447;SDS011;65284;51.040;13.722;2023-05-03T05:32:45;8.05;;;2.78;;
76447;SDS011;65284;51.040;13.722;2023-05-03T05:35:11;6.90;;;2.70;;
76447;SDS011;65284;51.040;13.722;2023-05-03T05:37:38;8.10;;;2.90;;
76447;SDS011;65284;51.040;13.722;2023-05-03T05:40:05;5.90;;;2.58;;
76447;SDS011;65284;51.040;13.722;2023-05-03T05:42:32;9.25;;;2.80;;
76447;SDS011;65284;51.040;13.722;2023-05-03T05:44:59;7.53;;;2.63;;
76447;SDS011;65284;51.040;13.722;2023-05-03T05:47:25;6.32;;;2.80;;
76447;SDS011;65284;51.040;13.722;2023-05-03T05:49:52;6.63;;;2.78;;
76447;SDS011;65284;51.040;13.722;2023-05-03T05:52:19;7.15;;;2.85;;
76447;SDS011;65284;51.040;13.722;2023-05-03T05:54:45;8.45;;;2.80;;
76447;SDS011;65284;51.040;13.722;2023-05-03T05:57:11;8.55;;;2.75;;
76447;SDS011;65284;51.040;13.722;2023-05-03T05:59:39;8.15;;;2.80;;
76447;SDS011;65284;51.040;13.722;2023-05-03T06:02:06;6.80;;;2.78;;
76447;SDS011;65284;51.040;13.722;2023-05-03T06:04:42;11.10;;;2.70;;
76447;SDS011;65284;51.040;13.722;2023-05-03T06:07:09;7.38;;;2.63;;
76447;SDS011;65284;51.040;13.722;2023-05-03T06:09:35;8.30;;;2.75;;
76447;SDS011;65284;51.040;13.722;2023-05-03T06:12:01;6.00;;;2.80;;
76447;SDS011;65284;51.040;13.722;2023-05-03T06:14:28;8.27;;;2.72;;
76447;SDS011;65284;51.040;13.722;2023-05-03T06:16:54;7.10;;;3.13;;
76447;SDS011;65284;51.040;13.722;2023-05-03T06:19:21;7.68;;;2.75;;
76447;SDS011;65284;51.040;13.722;2023-05-03T06:21:49;8.10;;;3.08;;
76447;SDS011;65284;51.040;13.722;2023-05-03T06:24:15;6.63;;;2.83;;
76447;SDS011;65284;51.040;13.722;2023-05-03T06:26:46;8.90;;;3.17;;
76447;SDS011;65284;51.040;13.722;2023-05-03T06:29:15;10.07;;;3.80;;
76447;SDS011;65284;51.040;13.722;2023-05-03T06:31:42;9.23;;;3.20;;
76447;SDS011;65284;51.040;13.722;2023-05-03T06:34:08;6.75;;;2.80;;
76447;SDS011;65284;51.040;13.722;2023-05-03T06:36:35;7.07;;;2.80;;
76447;SDS011;65284;51.040;13.722;2023-05-03T06:39:02;7.82;;;3.00;;
76447;SDS011;65284;51.040;13.722;2023-05-03T06:41:30;8.65;;;3.10;;
76447;SDS011;65284;51.040;13.722;2023-05-03T06:43:58;7.88;;;2.97;;
76447;SDS011;65284;51.040;13.722;2023-05-03T06:46:26;8.40;;;3.00;;
76447;SDS011;65284;51.040;13.722;2023-05-03T06:48:52;6.05;;;2.88;;
76447;SDS011;65284;51.040;13.722;2023-05-03T06:51:22;9.13;;;2.88;;
76447;SDS011;65284;51.040;13.722;2023-05-03T06:53:53;7.68;;;3.00;;
76447;SDS011;65284;51.040;13.722;2023-05-03T06:56:25;6.55;;;2.65;;
76447;SDS011;65284;51.040;13.722;2023-05-03T06:58:52;7.35;;;2.58;;
76447;SDS011;65284;51.040;13.722;2023-05-03T07:01:18;7.13;;;2.53;;
76447;SDS011;65284;51.040;13.722;2023-05-03T07:03:45;7.65;;;2.55;;
76447;SDS011;65284;51.040;13.722;2023-05-03T07:06:12;6.30;;;2.50;;
76447;SDS011;65284;51.040;13.722;2023-05-03T07:08:39;19.88;;;8.38;;
76447;SDS011;65284;51.040;13.722;2023-05-03T07:11:06;10.27;;;5.22;;
76447;SDS011;65284;51.040;13.722;2023-05-03T07:13:32;6.63;;;2.72;;
76447;SDS011;65284;51.040;13.722;2023-05-03T07:15:59;7.28;;;2.70;;
76447;SDS011;65284;51.040;13.722;2023-05-03T07:18:28;7.97;;;2.50;;
76447;SDS011;65284;51.040;13.722;2023-05-03T07:20:55;6.57;;;2.90;;
76447;SDS011;65284;51.040;13.722;2023-05-03T07:23:21;8.00;;;2.67;;
76447;SDS011;65284;51.040;13.722;2023-05-03T07:25:48;6.43;;;2.60;;
76447;SDS011;65284;51.040;13.722;2023-05-03T07:28:15;5.45;;;2.40;;
76447;SDS011;65284;51.040;13.722;2023-05-03T07:30:41;8.80;;;2.78;;
76447;SDS011;65284;51.040;13.722;2023-05-03T07:33:08;4.72;;;2.42;;
76447;SDS011;65284;51.040;13.722;2023-05-03T07:35:34;7.13;;;2.53;;
76447;SDS011;65284;51.040;13.722;2023-05-03T07:38:01;6.90;;;2.58;;
76447;SDS011;65284;51.040;13.722;2023-05-03T07:40:27;6.28;;;2.40;;
76447;SDS011;65284;51.040;13.722;2023-05-03T07:42:58;6.38;;;2.55;;
76447;SDS011;65284;51.040;13.722;2023-05-03T07:45:25;5.82;;;2.63;;
76447;SDS011;65284;51.040;13.722;2023-05-03T07:47:53;7.78;;;2.72;;
76447;SDS011;65284;51.040;13.722;2023-05-03T07:50:19;7.28;;;2.80;;
76447;SDS011;65284;51.040;13.722;2023-05-03T07:52:46;7.05;;;2.70;;
76447;SDS011;65284;51.040;13.722;2023-05-03T07:55:16;5.60;;;2.70;;
76447;SDS011;65284;51.040;13.722;2023-05-03T07:57:43;14.77;;;5.05;;
76447;SDS011;65284;51.040;13.722;2023-05-03T08:00:10;8.90;;;2.80;;
76447;SDS011;65284;51.040;13.722;2023-05-03T08:02:38;6.65;;;2.42;;
76447;SDS011;65284;51.040;13.722;2023-05-03T08:05:05;6.95;;;2.53;;
76447;SDS011;65284;51.040;13.722;2023-05-03T08:07:32;7.15;;;2.65;;
76447;SDS011;65284;51.040;13.722;2023-05-03T08:09:59;6.20;;;2.40;;
76447;SDS011;65284;51.040;13.722;2023-05-03T08:12:27;7.40;;;2.75;;
76447;SDS011;65284;51.040;13.722;2023-05-03T08:14:54;6.55;;;2.60;;
76447;SDS011;65284;51.040;13.722;2023-05-03T08:17:21;5.93;;;2.70;;
76447;SDS011;65284;51.040;13.722;2023-05-03T08:19:49;5.82;;;2.50;;
76447;SDS011;65284;51.040;13.722;2023-05-03T08:22:15;7.63;;;2.67;;
76447;SDS011;65284;51.040;13.722;2023-05-03T08:24:42;5.68;;;2.60;;
76447;SDS011;65284;51.040;13.722;2023-05-03T08:27:09;5.90;;;2.53;;
76447;SDS011;65284;51.040;13.722;2023-05-03T08:29:35;7.15;;;2.80;;
76447;SDS011;65284;51.040;13.722;2023-05-03T08:32:03;9.35;;;2.72;;
76447;SDS011;65284;51.040;13.722;2023-05-03T08:34:30;6.05;;;2.88;;
76447;SDS011;65284;51.040;13.722;2023-05-03T08:36:57;8.52;;;3.00;;
76447;SDS011;65284;51.040;13.722;2023-05-03T08:39:23;6.53;;;2.42;;
76447;SDS011;65284;51.040;13.722;2023-05-03T08:41:54;6.20;;;2.60;;
76447;SDS011;65284;51.040;13.722;2023-05-03T08:44:21;7.90;;;3.25;;
76447;SDS011;65284;51.040;13.722;2023-05-03T08:46:49;6.85;;;2.83;;
76447;SDS011;65284;51.040;13.722;2023-05-03T08:49:16;6.82;;;2.40;;
76447;SDS011;65284;51.040;13.722;2023-05-03T08:51:43;8.15;;;2.78;;
76447;SDS011;65284;51.040;13.722;2023-05-03T08:54:12;7.60;;;2.75;;
76447;SDS011;65284;51.040;13.722;2023-05-03T08:56:41;5.43;;;2.70;;
76447;SDS011;65284;51.040;13.722;2023-05-03T08:59:11;8.65;;;2.40;;
76447;SDS011;65284;51.040;13.722;2023-05-03T09:01:39;5.60;;;2.35;;
76447;SDS011;65284;51.040;13.722;2023-05-03T09:04:06;6.63;;;2.33;;
76447;SDS011;65284;51.040;13.722;2023-05-03T09:06:34;5.65;;;2.58;;
76447;SDS011;65284;51.040;13.722;2023-05-03T09:09:02;6.45;;;2.30;;
76447;SDS011;65284;51.040;13.722;2023-05-03T09:11:33;5.00;;;2.55;;
76447;SDS011;65284;51.040;13.722;2023-05-03T09:16:38;7.15;;;2.50;;
76447;SDS011;65284;51.040;13.722;2023-05-03T09:19:06;7.07;;;2.60;;
76447;SDS011;65284;51.040;13.722;2023-05-03T09:21:38;6.03;;;2.70;;
76447;SDS011;65284;51.040;13.722;2023-05-03T09:26:46;13.00;;;5.28;;
76447;SDS011;65284;51.040;13.722;2023-05-03T09:31:58;5.47;;;2.72;;
76447;SDS011;65284;51.040;13.722;2023-05-03T09:34:25;6.93;;;3.00;;
76447;SDS011;65284;51.040;13.722;2023-05-03T09:36:52;7.75;;;2.95;;
76447;SDS011;65284;51.040;13.722;2023-05-03T09:39:20;6.80;;;2.60;;
76447;SDS011;65284;51.040;13.722;2023-05-03T09:41:46;6.30;;;2.67;;
76447;SDS011;65284;51.040;13.722;2023-05-03T09:44:13;6.32;;;2.58;;
76447;SDS011;65284;51.040;13.722;2023-05-03T09:46:39;7.05;;;2.85;;
76447;SDS011;65284;51.040;13.722;2023-05-03T09:49:30;8.35;;;2.97;;
76447;SDS011;65284;51.040;13.722;2023-05-03T09:51:58;6.18;;;2.60;;
76447;SDS011;65284;51.040;13.722;2023-05-03T09:54:26;8.05;;;2.95;;
76447;SDS011;65284;51.040;13.722;2023-05-03T09:56:54;9.45;;;3.13;;
76447;SDS011;65284;51.040;13.722;2023-05-03T09:59:20;7.13;;;2.85;;
76447;SDS011;65284;51.040;13.722;2023-05-03T10:01:47;6.65;;;2.42;;
76447;SDS011;65284;51.040;13.722;2023-05-03T10:04:17;8.88;;;2.70;;
76447;SDS011;65284;51.040;13.722;2023-05-03T10:06:48;7.55;;;2.40;;
76447;SDS011;65284;51.040;13.722;2023-05-03T10:09:20;5.97;;;2.55;;
76447;SDS011;65284;51.040;13.722;2023-05-03T10:11:52;6.72;;;2.58;;
76447;SDS011;65284;51.040;13.722;2023-05-03T10:14:20;7.35;;;2.50;;
76447;SDS011;65284;51.040;13.722;2023-05-03T10:16:48;7.75;;;2.53;;
76447;SDS011;65284;51.040;13.722;2023-05-03T10:19:18;6.07;;;2.40;;
76447;SDS011;65284;51.040;13.722;2023-05-03T10:21:58;7.40;;;2.33;;
76447;SDS011;65284;51.040;13.722;2023-05-03T10:24:27;6.18;;;2.70;;
76447;SDS011;65284;51.040;13.722;2023-05-03T10:26:54;7.35;;;2.55;;
76447;SDS011;65284;51.040;13.722;2023-05-03T10:32:02;6.55;;;2.78;;
76447;SDS011;65284;51.040;13.722;2023-05-03T10:34:34;6.93;;;2.53;;
76447;SDS011;65284;51.040;13.722;2023-05-03T10:37:08;6.00;;;2.40;;
76447;SDS011;65284;51.040;13.722;2023-05-03T10:39:36;12.65;;;3.08;;
76447;SDS011;65284;51.040;13.722;2023-05-03T10:42:09;7.65;;;2.60;;
76447;SDS011;65284;51.040;13.722;2023-05-03T10:47:32;8.35;;;2.80;;
76447;SDS011;65284;51.040;13.722;2023-05-03T10:55:10;5.88;;;2.67;;
76447;SDS011;65284;51.040;13.722;2023-05-03T10:57:39;6.43;;;2.45;;
76447;SDS011;65284;51.040;13.722;2023-05-03T11:02:42;7.90;;;2.78;;
76447;SDS011;65284;51.040;13.722;2023-05-03T11:05:13;6.55;;;2.55;;
76447;SDS011;65284;51.040;13.722;2023-05-03T11:07:43;7.60;;;2.38;;
76447;SDS011;65284;51.040;13.722;2023-05-03T11:10:19;6.03;;;2.50;;
76447;SDS011;65284;51.040;13.722;2023-05-03T11:12:47;8.68;;;2.53;;
76447;SDS011;65284;51.040;13.722;2023-05-03T11:15:14;6.43;;;2.20;;
76447;SDS011;65284;51.040;13.722;2023-05-03T11:17:40;8.13;;;2.40;;
76447;SDS011;65284;51.040;13.722;2023-05-03T11:20:07;5.82;;;2.40;;
76447;SDS011;65284;51.040;13.722;2023-05-03T11:22:34;10.98;;;2.67;;
76447;SDS011;65284;51.040;13.722;2023-05-03T11:25:01;7.60;;;2.40;;
76447;SDS011;65284;51.040;13.722;2023-05-03T11:27:28;5.75;;;2.13;;
76447;SDS011;65284;51.040;13.722;2023-05-03T11:29:54;6.85;;;2.45;;
76447;SDS011;65284;51.040;13.722;2023-05-03T11:32:26;5.35;;;2.33;;
76447;SDS011;65284;51.040;13.722;2023-05-03T11:34:55;4.97;;;2.40;;
76447;SDS011;65284;51.040;13.722;2023-05-03T11:39:51;5.95;;;2.22;;
76447;SDS011;65284;51.040;13.722;2023-05-03T11:42:18;5.13;;;1.95;;
76447;SDS011;65284;51.040;13.722;2023-05-03T11:44:46;5.13;;;2.20;;
76447;SDS011;65284;51.040;13.722;2023-05-03T11:47:13;6.10;;;2.28;;
76447;SDS011;65284;51.040;13.722;2023-05-03T11:49:39;6.45;;;2.42;;
76447;SDS011;65284;51.040;13.722;2023-05-03T11:52:06;8.48;;;2.30;;
76447;SDS011;65284;51.040;13.722;2023-05-03T11:54:32;6.65;;;2.50;;
76447;SDS011;65284;51.040;13.722;2023-05-03T11:56:59;7.50;;;2.40;;
76447;SDS011;65284;51.040;13.722;2023-05-03T11:59:38;5.90;;;2.60;;
76447;SDS011;65284;51.040;13.722;2023-05-03T12:02:05;5.57;;;2.60;;
76447;SDS011;65284;51.040;13.722;2023-05-03T12:04:37;6.15;;;2.20;;
76447;SDS011;65284;51.040;13.722;2023-05-03T12:07:10;6.57;;;2.30;;
76447;SDS011;65284;51.040;13.722;2023-05-03T12:09:39;6.22;;;2.20;;
76447;SDS011;65284;51.040;13.722;2023-05-03T12:12:08;5.78;;;2.17;;
76447;SDS011;65284;51.040;13.722;2023-05-03T12:14:58;6.18;;;2.30;;
76447;SDS011;65284;51.040;13.722;2023-05-03T12:17:36;7.03;;;2.25;;
76447;SDS011;65284;51.040;13.722;2023-05-03T12:20:12;7.28;;;2.17;;
76447;SDS011;65284;51.040;13.722;2023-05-03T12:23:00;6.30;;;2.03;;
76447;SDS011;65284;51.040;13.722;2023-05-03T12:25:30;4.85;;;2.30;;
76447;SDS011;65284;51.040;13.722;2023-05-03T12:28:01;6.75;;;2.47;;
76447;SDS011;65284;51.040;13.722;2023-05-03T12:30:31;3.97;;;2.10;;
76447;SDS011;65284;51.040;13.722;2023-05-03T12:32:59;5.18;;;2.30;;
76447;SDS011;65284;51.040;13.722;2023-05-03T12:35:29;7.65;;;2.20;;
76447;SDS011;65284;51.040;13.722;2023-05-03T12:37:59;8.48;;;2.40;;
76447;SDS011;65284;51.040;13.722;2023-05-03T12:40:28;6.90;;;2.60;;
76447;SDS011;65284;51.040;13.722;2023-05-03T12:43:00;6.25;;;2.50;;
76447;SDS011;65284;51.040;13.722;2023-05-03T12:45:26;5.68;;;2.28;;
76447;SDS011;65284;51.040;13.722;2023-05-03T12:47:59;6.10;;;2.72;;
76447;SDS011;65284;51.040;13.722;2023-05-03T12:50:25;4.80;;;2.20;;
76447;SDS011;65284;51.040;13.722;2023-05-03T12:52:56;7.03;;;2.30;;
76447;SDS011;65284;51.040;13.722;2023-05-03T12:55:23;5.57;;;2.40;;
76447;SDS011;65284;51.040;13.722;2023-05-03T12:57:51;6.65;;;2.40;;
76447;SDS011;65284;51.040;13.722;2023-05-03T13:00:37;6.95;;;2.28;;
76447;SDS011;65284;51.040;13.722;2023-05-03T13:03:24;7.70;;;2.15;;
76447;SDS011;65284;51.040;13.722;2023-05-03T13:05:59;6.45;;;2.40;;
76447;SDS011;65284;51.040;13.722;2023-05-03T13:08:26;9.43;;;5.10;;
76447;SDS011;65284;51.040;13.722;2023-05-03T13:11:00;11.20;;;4.35;;
76447;SDS011;65284;51.040;13.722;2023-05-03T13:13:26;4.40;;;2.35;;
76447;SDS011;65284;51.040;13.722;2023-05-03T13:15:53;10.70;;;2.22;;
76447;SDS011;65284;51.040;13.722;2023-05-03T13:18:20;6.07;;;2.17;;
76447;SDS011;65284;51.040;13.722;2023-05-03T13:20:47;7.43;;;2.30;;
76447;SDS011;65284;51.040;13.722;2023-05-03T13:23:15;5.00;;;1.92;;
76447;SDS011;65284;51.040;13.722;2023-05-03T13:25:42;4.80;;;2.40;;
76447;SDS011;65284;51.040;13.722;2023-05-03T13:28:09;5.28;;;2.00;;
76447;SDS011;65284;51.040;13.722;2023-05-03T13:30:36;6.45;;;2.03;;
76447;SDS011;65284;51.040;13.722;2023-05-03T13:33:02;7.72;;;2.10;;
76447;SDS011;65284;51.040;13.722;2023-05-03T13:35:29;6.03;;;1.90;;
76447;SDS011;65284;51.040;13.722;2023-05-03T13:37:55;6.70;;;2.03;;
76447;SDS011;65284;51.040;13.722;2023-05-03T13:40:23;5.55;;;1.95;;
76447;SDS011;65284;51.040;13.722;2023-05-03T13:42:49;6.03;;;1.80;;
76447;SDS011;65284;51.040;13.722;2023-05-03T13:45:16;6.28;;;2.00;;
76447;SDS011;65284;51.040;13.722;2023-05-03T13:47:43;6.43;;;2.10;;
76447;SDS011;65284;51.040;13.722;2023-05-03T13:50:13;5.75;;;1.98;;
76447;SDS011;65284;51.040;13.722;2023-05-03T13:52:41;4.05;;;1.58;;
76447;SDS011;65284;51.040;13.722;2023-05-03T13:55:09;7.82;;;1.90;;
76447;SDS011;65284;51.040;13.722;2023-05-03T13:57:36;7.32;;;1.88;;
76447;SDS011;65284;51.040;13.722;2023-05-03T14:00:02;6.80;;;2.75;;
76447;SDS011;65284;51.040;13.722;2023-05-03T14:02:32;4.93;;;1.98;;
76447;SDS011;65284;51.040;13.722;2023-05-03T14:04:59;6.50;;;1.58;;
76447;SDS011;65284;51.040;13.722;2023-05-03T14:07:25;6.45;;;2.15;;
76447;SDS011;65284;51.040;13.722;2023-05-03T14:09:52;6.85;;;2.22;;
76447;SDS011;65284;51.040;13.722;2023-05-03T14:12:18;5.30;;;1.95;;
76447;SDS011;65284;51.040;13.722;2023-05-03T14:14:44;5.45;;;1.98;;
76447;SDS011;65284;51.040;13.722;2023-05-03T14:17:11;6.72;;;1.90;;
76447;SDS011;65284;51.040;13.722;2023-05-03T14:19:38;4.28;;;1.80;;
76447;SDS011;65284;51.040;13.722;2023-05-03T14:22:05;6.88;;;1.90;;
76447;SDS011;65284;51.040;13.722;2023-05-03T14:24:31;4.25;;;1.63;;
76447;SDS011;65284;51.040;13.722;2023-05-03T14:26:58;4.85;;;1.83;;
76447;SDS011;65284;51.040;13.722;2023-05-03T14:29:25;4.95;;;1.70;;
76447;SDS011;65284;51.040;13.722;2023-05-03T14:31:51;7.55;;;2.08;;
76447;SDS011;65284;51.040;13.722;2023-05-03T14:34:18;4.97;;;1.50;;
76447;SDS011;65284;51.040;13.722;2023-05-03T14:36:45;4.63;;;1.77;;
76447;SDS011;65284;51.040;13.722;2023-05-03T14:39:11;4.85;;;1.60;;
76447;SDS011;65284;51.040;13.722;2023-05-03T14:41:39;4.97;;;1.50;;
76447;SDS011;65284;51.040;13.722;2023-05-03T14:44:10;5.90;;;1.75;;
76447;SDS011;65284;51.040;13.722;2023-05-03T14:46:36;5.65;;;1.80;;
76447;SDS011;65284;51.040;13.722;2023-05-03T14:49:03;4.82;;;1.83;;
76447;SDS011;65284;51.040;13.722;2023-05-03T14:51:29;4.38;;;1.88;;
76447;SDS011;65284;51.040;13.722;2023-05-03T14:53:57;5.60;;;2.05;;
76447;SDS011;65284;51.040;13.722;2023-05-03T14:56:23;6.57;;;1.65;;
76447;SDS011;65284;51.040;13.722;2023-05-03T14:58:50;5.18;;;1.90;;
76447;SDS011;65284;51.040;13.722;2023-05-03T15:01:20;6.22;;;1.70;;
76447;SDS011;65284;51.040;13.722;2023-05-03T15:03:46;12.50;;;4.28;;
76447;SDS011;65284;51.040;13.722;2023-05-03T15:06:13;10.73;;;3.50;;
76447;SDS011;65284;51.040;13.722;2023-05-03T15:08:40;6.40;;;1.90;;